createdAt,value
2022-09-13T00:02:19.412Z,99.78
2022-09-13T00:04:48.995Z,99.78
2022-09-13T00:07:19.344Z,99.90
2022-09-13T00:09:49.510Z,99.97
2022-09-13T00:12:18.764Z,100.00
2022-09-13T00:14:49.127Z,99.98
2022-09-13T00:17:19.743Z,99.97
2022-09-13T00:19:49.412Z,100.00
2022-09-13T00:22:19.352Z,100.00
2022-09-13T00:24:48.442Z,100.00
2022-09-13T00:27:17.749Z,100.00
2022-09-13T00:29:47.820Z,100.00
2022-09-13T00:32:16.667Z,100.00
2022-09-13T00:34:45.787Z,100.00
2022-09-13T00:37:14.982Z,100.00
2022-09-13T00:39:46.891Z,100.00
2022-09-13T00:42:18.310Z,100.00
2022-09-13T00:45:14.052Z,100.00
2022-09-13T00:47:55.844Z,100.00
2022-09-13T00:50:40.585Z,100.00
2022-09-13T00:53:25.123Z,100.00
2022-09-13T00:56:18.218Z,100.00
2022-09-13T00:58:51.952Z,100.00
2022-09-13T01:01:23.764Z,100.00
2022-09-13T01:03:53.747Z,100.00
2022-09-13T01:06:27.956Z,100.00
2022-09-13T01:08:59.926Z,100.00
2022-09-13T01:11:53.781Z,100.00
2022-09-13T01:14:24.180Z,100.00
2022-09-13T01:16:54.997Z,100.00
2022-09-13T01:19:24.714Z,100.00
2022-09-13T01:22:18.083Z,100.00
2022-09-13T01:25:18.443Z,100.00
2022-09-13T01:28:10.067Z,100.00
2022-09-13T01:30:54.101Z,100.00
2022-09-13T01:34:01.935Z,100.00
2022-09-13T01:36:44.772Z,100.00
2022-09-13T01:39:22.035Z,100.00
2022-09-13T01:42:18.979Z,100.00
2022-09-13T01:45:09.353Z,100.00
2022-09-13T01:48:05.845Z,100.00
2022-09-13T01:50:44.956Z,100.00
2022-09-13T01:53:35.925Z,100.00
2022-09-13T01:56:24.824Z,100.00
2022-09-13T01:59:03.563Z,100.00
2022-09-13T02:01:39.805Z,100.00
2022-09-13T02:04:14.323Z,100.00
2022-09-13T02:07:07.982Z,100.00
2022-09-13T02:09:40.564Z,100.00
2022-09-13T02:12:20.179Z,100.00
2022-09-13T02:14:55.548Z,100.00
2022-09-13T02:17:28.027Z,100.00
2022-09-13T02:20:00.060Z,100.00
2022-09-13T02:22:34.982Z,100.00
2022-09-13T02:25:12.647Z,100.00
2022-09-13T02:27:44.085Z,100.00
2022-09-13T02:30:14.129Z,100.00
2022-09-13T02:33:06.144Z,100.00
2022-09-13T02:36:02.003Z,100.00
2022-09-13T02:38:35.706Z,100.00
2022-09-13T02:41:40.229Z,100.00
2022-09-13T02:44:35.760Z,100.00
2022-09-13T02:47:13.838Z,100.00
2022-09-13T02:50:01.887Z,100.00
2022-09-13T02:52:52.299Z,100.00
2022-09-13T02:55:35.602Z,100.00
2022-09-13T02:58:27.925Z,100.00
2022-09-13T03:00:58.746Z,100.00
2022-09-13T03:03:27.770Z,100.00
2022-09-13T03:05:57.222Z,100.00
2022-09-13T03:08:26.061Z,100.00
2022-09-13T03:11:24.747Z,100.00
2022-09-13T03:14:26.685Z,100.00
2022-09-13T03:17:31.911Z,100.00
2022-09-13T03:20:11.839Z,100.00
2022-09-13T03:22:55.570Z,100.00
2022-09-13T03:25:45.282Z,100.00
2022-09-13T03:28:37.847Z,100.00
2022-09-13T03:31:28.126Z,100.00
2022-09-13T03:34:05.034Z,100.00
2022-09-13T03:36:44.689Z,100.00
2022-09-13T03:39:24.900Z,100.00
2022-09-13T03:41:56.944Z,100.00
2022-09-13T03:44:25.950Z,100.00
2022-09-13T03:46:57.936Z,100.00
2022-09-13T03:49:27.322Z,100.00
2022-09-13T03:51:57.938Z,100.00
2022-09-13T03:54:32.220Z,100.00
2022-09-13T03:57:20.795Z,100.00
2022-09-13T03:59:54.590Z,100.00
2022-09-13T04:02:25.744Z,100.00
2022-09-13T04:04:56.353Z,100.00
2022-09-13T04:07:25.713Z,100.00
2022-09-13T04:09:57.045Z,100.00
2022-09-13T04:12:29.637Z,100.00
2022-09-13T04:14:59.147Z,100.00
2022-09-13T04:17:29.552Z,100.00
2022-09-13T04:19:59.612Z,100.00
2022-09-13T04:22:29.162Z,100.00
2022-09-13T04:25:02.607Z,100.00
2022-09-13T04:27:32.792Z,100.00
2022-09-13T04:30:02.458Z,100.00
2022-09-13T04:32:33.583Z,100.00
2022-09-13T04:35:02.792Z,100.00
2022-09-13T04:37:32.566Z,100.00
2022-09-13T04:40:02.474Z,100.00
2022-09-13T04:42:33.207Z,100.00
2022-09-13T04:45:03.109Z,100.00
2022-09-13T04:47:33.124Z,100.00
2022-09-13T04:50:03.119Z,100.00
2022-09-13T04:52:33.318Z,100.00
2022-09-13T04:55:03.730Z,100.00
2022-09-13T04:57:32.780Z,100.00
2022-09-13T05:00:04.558Z,100.00
2022-09-13T05:02:34.400Z,100.00
2022-09-13T05:05:04.851Z,100.00
2022-09-13T05:07:35.466Z,100.00
2022-09-13T05:10:05.667Z,100.00
2022-09-13T05:12:35.615Z,100.00
2022-09-13T05:15:06.933Z,100.00
2022-09-13T05:17:35.946Z,100.00
2022-09-13T05:20:05.906Z,100.00
2022-09-13T05:22:35.486Z,100.00
2022-09-13T05:25:05.685Z,100.00
2022-09-13T05:27:35.087Z,100.00
2022-09-13T05:30:07.286Z,100.00
2022-09-13T05:32:37.447Z,100.00
2022-09-13T05:35:09.520Z,100.00
2022-09-13T05:37:40.072Z,100.00
2022-09-13T05:40:12.233Z,100.00
2022-09-13T05:42:42.702Z,100.00
2022-09-13T05:45:15.201Z,100.00
2022-09-13T05:47:45.377Z,100.00
2022-09-13T05:50:32.892Z,100.00
2022-09-13T05:52:55.769Z,100.00
2022-09-13T05:55:27.456Z,100.00
2022-09-13T05:57:56.268Z,100.00
2022-09-13T06:00:26.657Z,100.00
2022-09-13T06:02:57.123Z,100.00
2022-09-13T06:05:31.658Z,100.00
2022-09-13T06:07:59.519Z,100.00
2022-09-13T06:10:30.218Z,100.00
2022-09-13T06:13:02.741Z,100.00
2022-09-13T06:15:32.688Z,100.00
2022-09-13T06:18:02.876Z,100.00
2022-09-13T06:20:32.633Z,100.00
2022-09-13T06:23:01.777Z,100.00
2022-09-13T06:25:31.557Z,100.00
2022-09-13T06:28:01.647Z,100.00
2022-09-13T06:30:31.762Z,100.00
2022-09-13T06:33:01.059Z,100.00
2022-09-13T06:35:31.536Z,100.00
2022-09-13T06:38:01.608Z,100.00
2022-09-13T06:40:32.483Z,100.00
2022-09-13T06:43:02.352Z,100.00
2022-09-13T06:45:32.647Z,100.00
2022-09-13T06:48:02.476Z,100.00
2022-09-13T06:50:33.745Z,100.00
2022-09-13T06:53:03.891Z,100.00
2022-09-13T06:55:35.000Z,100.00
2022-09-13T06:58:04.576Z,100.00
2022-09-13T07:00:38.193Z,100.00
2022-09-13T07:03:08.430Z,100.00
2022-09-13T07:05:38.566Z,100.00
2022-09-13T07:08:08.163Z,100.00
2022-09-13T07:10:37.983Z,100.00
2022-09-13T07:13:06.713Z,100.00
2022-09-13T07:15:37.223Z,100.00
2022-09-13T07:18:07.554Z,100.00
2022-09-13T07:20:37.219Z,100.00
2022-09-13T07:23:06.022Z,100.00
2022-09-13T07:25:35.268Z,100.00
2022-09-13T07:28:07.403Z,100.00
2022-09-13T07:30:38.022Z,100.00
2022-09-13T07:33:09.566Z,100.00
2022-09-13T07:35:41.081Z,99.87
2022-09-13T07:38:12.994Z,99.07
2022-09-13T07:40:45.673Z,98.57
2022-09-13T07:43:15.382Z,98.47
2022-09-13T07:45:45.833Z,98.48
2022-09-13T07:48:18.229Z,98.25
2022-09-13T07:51:02.240Z,98.15
2022-09-13T07:53:35.574Z,98.16
2022-09-13T07:56:13.913Z,98.03
2022-09-13T07:58:44.665Z,97.65
2022-09-13T08:01:26.301Z,97.42
2022-09-13T08:04:05.371Z,96.92
2022-09-13T08:06:40.229Z,97.05
2022-09-13T08:09:10.888Z,96.56
2022-09-13T08:11:45.189Z,96.17
2022-09-13T08:14:17.336Z,95.77
2022-09-13T08:16:47.074Z,95.39
2022-09-13T08:19:18.409Z,94.90
2022-09-13T08:21:48.876Z,94.74
2022-09-13T08:24:22.523Z,94.25
2022-09-13T08:26:53.309Z,93.89
2022-09-13T08:29:25.029Z,93.76
2022-09-13T08:31:54.270Z,93.17
2022-09-13T08:34:25.276Z,92.55
2022-09-13T08:36:54.845Z,92.14
2022-09-13T08:39:24.568Z,91.60
2022-09-13T08:42:14.168Z,91.20
2022-09-13T08:44:48.559Z,90.82
2022-09-13T08:47:26.421Z,89.77
2022-09-13T08:50:24.928Z,89.57
2022-09-13T08:53:23.819Z,89.73
2022-09-13T08:56:03.774Z,89.91
2022-09-13T08:59:06.239Z,89.86
2022-09-13T09:02:15.832Z,90.31
2022-09-13T09:04:59.141Z,90.67
2022-09-13T09:07:33.287Z,90.38
2022-09-13T09:10:08.338Z,90.06
2022-09-13T09:12:49.576Z,90.14
2022-09-13T09:15:29.721Z,89.99
2022-09-13T09:18:21.163Z,90.20
2022-09-13T09:20:56.524Z,90.16
2022-09-13T09:23:42.046Z,90.12
2022-09-13T09:26:26.295Z,90.30
2022-09-13T09:29:08.298Z,90.61
2022-09-13T09:32:18.146Z,90.39
2022-09-13T09:35:20.298Z,90.36
2022-09-13T09:38:10.114Z,90.70
2022-09-13T09:40:39.648Z,90.53
2022-09-13T09:43:25.968Z,90.77
2022-09-13T09:45:54.771Z,90.70
2022-09-13T09:48:28.994Z,90.57
2022-09-13T09:50:58.594Z,90.03
2022-09-13T09:53:43.264Z,89.30
2022-09-13T09:56:33.561Z,89.05
2022-09-13T09:59:03.663Z,88.33
2022-09-13T10:01:36.284Z,87.79
2022-09-13T10:04:16.725Z,87.75
2022-09-13T10:06:48.130Z,87.89
2022-09-13T10:09:21.683Z,87.85
2022-09-13T10:11:57.807Z,88.43
2022-09-13T10:14:42.401Z,88.84
2022-09-13T10:17:25.368Z,88.36
2022-09-13T10:20:03.028Z,87.88
2022-09-13T10:22:33.819Z,86.82
2022-09-13T10:25:20.249Z,85.80
2022-09-13T10:27:54.285Z,85.29
2022-09-13T10:30:34.048Z,84.36
2022-09-13T10:33:03.120Z,84.46
2022-09-13T10:35:32.634Z,84.51
2022-09-13T10:38:02.358Z,84.14
2022-09-13T10:40:37.477Z,84.42
2022-09-13T10:43:14.337Z,84.79
2022-09-13T10:45:50.479Z,84.98
2022-09-13T10:48:19.885Z,84.90
2022-09-13T10:51:11.083Z,84.87
2022-09-13T10:53:41.392Z,84.87
2022-09-13T10:56:27.458Z,85.07
2022-09-13T10:59:19.733Z,84.93
2022-09-13T11:02:22.627Z,84.77
2022-09-13T11:05:22.540Z,84.25
2022-09-13T11:08:21.263Z,83.99
2022-09-13T11:11:36.729Z,83.44
2022-09-13T11:14:33.581Z,83.42
2022-09-13T11:17:24.535Z,83.03
2022-09-13T11:20:31.230Z,83.10
2022-09-13T11:23:29.641Z,83.23
2022-09-13T11:26:25.582Z,83.08
2022-09-13T11:29:12.431Z,83.17
2022-09-13T11:32:24.431Z,83.25
2022-09-13T11:35:26.849Z,83.41
2022-09-13T11:38:03.996Z,83.17
2022-09-13T11:41:11.196Z,83.21
2022-09-13T11:44:28.174Z,82.91
2022-09-13T11:47:29.579Z,82.96
2022-09-13T11:50:32.555Z,81.78
2022-09-13T11:53:31.334Z,82.59
2022-09-13T11:56:08.614Z,82.22
2022-09-13T11:58:49.050Z,81.79
2022-09-13T12:01:35.518Z,81.71
2022-09-13T12:04:08.711Z,81.98
2022-09-13T12:06:41.631Z,82.33
2022-09-13T12:09:20.269Z,82.32
2022-09-13T12:11:53.694Z,82.35
2022-09-13T12:14:25.764Z,82.52
2022-09-13T12:17:00.036Z,82.05
2022-09-13T12:19:43.100Z,81.56
2022-09-13T12:22:12.595Z,81.55
2022-09-13T12:24:46.131Z,81.40
2022-09-13T12:27:40.884Z,81.38
2022-09-13T12:30:17.180Z,81.59
2022-09-13T12:32:47.831Z,81.59
2022-09-13T12:35:26.574Z,81.16
2022-09-13T12:38:16.088Z,81.18
2022-09-13T12:41:34.301Z,81.20
2022-09-13T12:44:23.890Z,81.46
2022-09-13T12:47:18.283Z,81.62
2022-09-13T12:53:19.549Z,82.09
2022-09-13T12:56:34.561Z,82.29
2022-09-13T12:59:35.475Z,82.40
2022-09-13T13:02:04.461Z,82.78
2022-09-13T13:04:35.497Z,82.92
2022-09-13T13:07:07.129Z,83.15
2022-09-13T13:09:50.623Z,83.12
2022-09-13T13:12:38.262Z,83.20
2022-09-13T13:15:27.602Z,83.54
2022-09-13T13:17:57.292Z,83.76
2022-09-13T13:20:48.424Z,83.81
2022-09-13T13:23:37.159Z,83.75
2022-09-13T13:26:28.457Z,83.93
2022-09-13T13:29:17.751Z,84.30
2022-09-13T13:32:02.747Z,84.32
2022-09-13T13:34:45.627Z,84.31
2022-09-13T13:37:20.633Z,84.21
2022-09-13T13:40:10.890Z,84.53
2022-09-13T13:42:41.605Z,84.60
2022-09-13T13:45:24.824Z,84.54
2022-09-13T13:48:02.682Z,84.64
2022-09-13T13:50:36.189Z,84.68
2022-09-13T13:53:22.135Z,84.61
2022-09-13T13:56:06.998Z,84.61
2022-09-13T13:58:40.195Z,84.62
2022-09-13T14:01:13.685Z,84.38
2022-09-13T14:04:33.238Z,83.98
2022-09-13T14:07:39.724Z,83.93
2022-09-13T14:10:21.675Z,83.62
2022-09-13T14:13:18.530Z,83.78
2022-09-13T14:16:12.029Z,83.99
2022-09-13T14:19:07.670Z,84.09
2022-09-13T14:21:40.505Z,84.03
2022-09-13T14:24:24.237Z,84.20
2022-09-13T14:26:58.904Z,84.51
2022-09-13T14:29:32.022Z,84.74
2022-09-13T14:32:07.039Z,84.62
2022-09-13T14:34:39.186Z,84.51
2022-09-13T14:37:18.572Z,84.69
2022-09-13T14:40:19.130Z,84.58
2022-09-13T14:42:51.597Z,84.73
2022-09-13T14:45:35.815Z,84.97
2022-09-13T14:48:27.630Z,85.49
2022-09-13T14:51:03.161Z,85.84
2022-09-13T14:53:34.062Z,86.33
2022-09-13T14:56:09.064Z,86.59
2022-09-13T14:58:45.549Z,86.85
2022-09-13T15:01:33.051Z,87.30
2022-09-13T15:04:02.994Z,87.78
2022-09-13T15:06:37.542Z,88.08
2022-09-13T15:09:20.541Z,88.12
2022-09-13T15:11:57.091Z,88.39
2022-09-13T15:14:37.843Z,88.76
2022-09-13T15:17:12.445Z,88.92
2022-09-13T15:19:51.888Z,89.33
2022-09-13T15:22:36.200Z,89.68
2022-09-13T15:25:09.784Z,89.66
2022-09-13T15:27:47.967Z,89.80
2022-09-13T15:30:30.017Z,90.02
2022-09-13T15:33:11.328Z,90.30
2022-09-13T15:35:44.557Z,90.74
2022-09-13T15:38:30.850Z,91.04
2022-09-13T15:41:20.042Z,91.45
2022-09-13T15:43:50.491Z,91.69
2022-09-13T15:46:19.618Z,91.85
2022-09-13T15:48:55.520Z,91.94
2022-09-13T15:51:26.045Z,92.41
2022-09-13T15:53:55.550Z,92.71
2022-09-13T15:56:36.986Z,92.76
2022-09-13T15:59:07.382Z,92.56
2022-09-13T16:01:36.427Z,92.68
2022-09-13T16:04:06.622Z,92.76
2022-09-13T16:06:36.651Z,92.75
2022-09-13T16:09:18.960Z,92.71
2022-09-13T16:11:49.817Z,92.72
2022-09-13T16:14:20.372Z,92.67
2022-09-13T16:16:51.752Z,92.69
2022-09-13T16:19:22.323Z,92.63
2022-09-13T16:21:51.142Z,92.52
2022-09-13T16:24:21.070Z,92.41
2022-09-13T16:26:53.106Z,92.41
2022-09-13T16:29:22.890Z,92.30
2022-09-13T16:31:52.583Z,92.18
2022-09-13T16:34:22.126Z,92.05
2022-09-13T16:36:51.786Z,92.16
2022-09-13T16:39:21.236Z,92.14
2022-09-13T16:41:50.414Z,92.13
2022-09-13T16:44:19.478Z,92.11
2022-09-13T16:46:50.602Z,92.23
2022-09-13T16:49:21.113Z,92.44
2022-09-13T16:51:50.969Z,92.42
2022-09-13T16:54:20.116Z,92.41
2022-09-13T16:56:49.906Z,92.37
2022-09-13T16:59:19.412Z,92.61
2022-09-13T17:01:49.967Z,92.72
2022-09-13T17:04:20.303Z,92.98
2022-09-13T17:06:49.745Z,93.12
2022-09-13T17:09:20.927Z,93.19
2022-09-13T17:11:50.816Z,93.24
2022-09-13T17:14:21.871Z,93.36
2022-09-13T17:16:54.600Z,93.48
2022-09-13T17:19:26.709Z,93.59
2022-09-13T17:21:59.585Z,93.63
2022-09-13T17:24:30.705Z,93.69
2022-09-13T17:27:00.715Z,93.70
2022-09-13T17:29:31.431Z,93.72
2022-09-13T17:32:01.128Z,93.93
2022-09-13T17:34:32.481Z,94.01
2022-09-13T17:37:03.353Z,93.95
2022-09-13T17:39:33.996Z,94.08
2022-09-13T17:42:03.992Z,94.17
2022-09-13T17:44:33.964Z,94.17
2022-09-13T17:47:05.996Z,94.00
2022-09-13T17:49:35.786Z,93.95
2022-09-13T17:52:05.477Z,93.98
2022-09-13T17:54:35.406Z,93.99
2022-09-13T17:57:05.250Z,93.97
2022-09-13T17:59:34.054Z,93.97
2022-09-13T18:02:04.212Z,93.83
2022-09-13T18:04:34.101Z,93.74
2022-09-13T18:07:05.769Z,93.68
2022-09-13T18:09:36.063Z,93.62
2022-09-13T18:12:05.000Z,93.53
2022-09-13T18:14:35.520Z,93.44
2022-09-13T18:17:07.487Z,93.34
2022-09-13T18:19:46.279Z,93.27
2022-09-13T18:22:09.143Z,93.09
2022-09-13T18:24:40.568Z,93.09
2022-09-13T18:27:09.975Z,92.72
2022-09-13T18:29:38.745Z,92.60
2022-09-13T18:32:08.280Z,92.59
2022-09-13T18:34:41.588Z,92.64
2022-09-13T18:37:10.513Z,92.71
2022-09-13T18:39:39.723Z,92.73
2022-09-13T18:42:09.490Z,92.75
2022-09-13T18:44:39.626Z,92.72
2022-09-13T18:47:11.612Z,92.84
2022-09-13T18:49:41.679Z,92.88
2022-09-13T18:52:12.428Z,92.92
2022-09-13T18:54:42.350Z,92.91
2022-09-13T18:57:12.073Z,92.82
2022-09-13T18:59:41.986Z,92.89
2022-09-13T19:02:12.569Z,92.91
2022-09-13T19:04:41.974Z,92.86
2022-09-13T19:07:12.602Z,92.77
2022-09-13T19:09:42.317Z,92.89
2022-09-13T19:12:12.870Z,92.92
2022-09-13T19:14:42.009Z,92.81
2022-09-13T19:17:11.583Z,92.80
2022-09-13T19:19:41.107Z,92.82
2022-09-13T19:22:11.302Z,92.84
2022-09-13T19:24:40.450Z,92.89
2022-09-13T19:27:12.458Z,92.92
2022-09-13T19:29:41.864Z,92.74
2022-09-13T19:32:11.951Z,92.71
2022-09-13T19:34:41.928Z,92.69
2022-09-13T19:37:12.098Z,92.60
2022-09-13T19:39:42.082Z,92.31
2022-09-13T19:42:10.986Z,92.31
2022-09-13T19:44:41.579Z,92.22
2022-09-13T19:48:02.134Z,92.00
2022-09-13T19:49:41.696Z,91.98
2022-09-13T19:52:10.898Z,92.01
2022-09-13T19:54:40.998Z,92.16
2022-09-13T19:57:12.731Z,92.03
2022-09-13T19:59:42.530Z,92.09
2022-09-13T20:05:09.977Z,92.20
2022-09-13T20:07:40.383Z,92.36
2022-09-13T20:10:10.201Z,92.45
2022-09-13T20:12:41.607Z,92.55
2022-09-13T20:15:12.222Z,92.67
2022-09-13T20:17:42.006Z,92.93
2022-09-13T20:20:11.462Z,93.14
2022-09-13T20:22:40.474Z,93.30
2022-09-13T20:25:10.366Z,93.47
2022-09-13T20:27:40.266Z,93.63
2022-09-13T20:30:11.358Z,93.76
2022-09-13T20:32:41.532Z,93.83
2022-09-13T20:35:10.845Z,93.92
2022-09-13T20:37:42.985Z,94.13
2022-09-13T20:40:13.354Z,94.26
2022-09-13T20:42:43.019Z,94.29
2022-09-13T20:45:12.823Z,94.43
2022-09-13T20:47:44.744Z,94.43
2022-09-13T20:50:14.638Z,94.44
2022-09-13T20:52:44.383Z,94.45
2022-09-13T20:55:13.421Z,94.45
2022-09-13T20:57:43.037Z,94.30
2022-09-13T21:00:15.992Z,94.30
2022-09-13T21:02:46.507Z,94.36
2022-09-13T21:05:16.391Z,94.46
2022-09-13T21:08:04.519Z,94.61
2022-09-13T21:10:57.058Z,94.62
2022-09-13T21:13:30.555Z,94.68
2022-09-13T21:16:09.858Z,94.65
2022-09-13T21:18:41.174Z,94.58
2022-09-13T21:21:14.626Z,94.65
2022-09-13T21:23:44.786Z,94.73
2022-09-13T21:26:17.295Z,94.52
2022-09-13T21:28:47.143Z,94.61
2022-09-13T21:31:21.940Z,94.71
2022-09-13T21:34:04.154Z,94.73
2022-09-13T21:36:34.536Z,94.75
2022-09-13T21:39:04.607Z,94.79
2022-09-13T21:41:35.399Z,94.81
2022-09-13T21:44:05.517Z,94.96
2022-09-13T21:46:36.648Z,95.13
2022-09-13T21:49:07.804Z,95.12
2022-09-13T21:51:45.490Z,95.00
2022-09-13T21:54:18.227Z,94.97
2022-09-13T21:56:53.763Z,94.96
2022-09-13T21:59:24.873Z,94.91
2022-09-13T22:01:54.199Z,94.92
2022-09-13T22:04:26.989Z,94.80
2022-09-13T22:06:56.889Z,94.84
2022-09-13T22:09:27.614Z,94.86
2022-09-13T22:11:57.670Z,94.96
2022-09-13T22:14:27.112Z,94.96
2022-09-13T22:16:56.576Z,95.04
2022-09-13T22:19:27.302Z,95.05
2022-09-13T22:22:00.110Z,94.98
2022-09-13T22:24:32.093Z,95.01
2022-09-13T22:27:02.382Z,94.99
2022-09-13T22:29:31.827Z,94.93
2022-09-13T22:32:02.638Z,94.79
2022-09-13T22:34:34.678Z,94.82
2022-09-13T22:37:06.737Z,94.75
2022-09-13T22:39:38.616Z,94.70
2022-09-13T22:42:08.746Z,94.55
2022-09-13T22:44:38.139Z,94.56
2022-09-13T22:47:07.965Z,94.47
2022-09-13T22:49:37.222Z,94.41
2022-09-13T22:52:07.768Z,94.29
2022-09-13T22:54:38.399Z,94.30
2022-09-13T22:57:07.904Z,94.18
2022-09-13T22:59:38.229Z,94.13
2022-09-13T23:02:07.293Z,94.23
2022-09-13T23:04:37.848Z,94.18
2022-09-13T23:07:08.342Z,94.09
2022-09-13T23:09:38.214Z,94.18
2022-09-13T23:12:10.200Z,94.21
2022-09-13T23:14:40.924Z,94.13
2022-09-13T23:17:10.335Z,94.26
2022-09-13T23:19:40.295Z,94.20
2022-09-13T23:22:09.833Z,94.16
2022-09-13T23:24:40.254Z,94.18
2022-09-13T23:27:10.272Z,94.22
2022-09-13T23:29:39.821Z,94.18
2022-09-13T23:32:10.277Z,94.18
2022-09-13T23:34:40.322Z,94.33
2022-09-13T23:37:09.801Z,94.35
2022-09-13T23:39:39.957Z,94.43
2022-09-13T23:42:10.237Z,94.42
2022-09-13T23:44:41.535Z,94.34
2022-09-13T23:47:10.976Z,94.30
2022-09-13T23:49:40.960Z,94.25
2022-09-13T23:52:11.316Z,94.27
2022-09-13T23:54:41.995Z,94.34
2022-09-13T23:57:10.888Z,94.29
2022-09-13T23:59:41.677Z,94.26
